Time;durP1;ratioP1;P1;durP2;ratioP2;P2;SDS_P1;SDS_P2;PMS_P1;PMS_P2;Temp;Humidity;BMP_temperature;BMP_pressure;BME280_temperature;BME280_humidity;BME280_pressure;Samples;Min_cycle;Max_cycle;Signal;HPM_P1;HPM_P2
2022/02/14 00:02:10;;;;;;;;;;;;;;;;;;7395983;19;1984;-43
2022/02/14 00:04:37;;;;;;;;;;;;;;;;;;7395619;19;2050;-42
2022/02/14 00:07:04;;;;;;;;;;;;;;;;;;7395100;19;2316;-47
2022/02/14 00:09:31;;;;;;;;;;;;;;;;;;7395314;19;2292;-48
2022/02/14 00:12:00;;;;;;;;;;;;;;;;;;7393044;19;2347;-43
2022/02/14 00:14:29;;;;;;;;;;;;;;;;;;7395647;19;2294;-48
2022/02/14 00:16:57;;;;;;;;;;;;;;;;;;7393809;19;2081;-44
2022/02/14 00:19:24;;;;;;;;;;;;;;;;;;7394997;19;2393;-44
2022/02/14 00:21:51;;;;;;;;;;;;;;;;;;7395017;19;2221;-45
2022/02/14 00:24:18;;;;;;;;;;;;;;;;;;7394851;19;2301;-47
2022/02/14 00:26:47;;;;;;;;;;;;;;;;;;7392067;19;2277;-42
2022/02/14 00:29:16;;;;;;;;;;;;;;;;;;7394089;19;2013;-47
2022/02/14 00:31:43;;;;;;;;;;;;;;;;;;7392951;19;2184;-47
2022/02/14 00:34:11;;;;;;;;;;;;;;;;;;7394179;19;2053;-43
2022/02/14 00:36:39;;;;;;;;;;;;;;;;;;7394386;19;1972;-43
2022/02/14 00:39:06;;;;;;;;;;;;;;;;;;7394899;19;2211;-43
2022/02/14 00:41:33;;;;;;;;;;;;;;;;;;7393805;19;2233;-43
2022/02/14 00:44:00;;;;;;;;;;;;;;;;;;7395338;19;2421;-47
2022/02/14 00:46:27;;;;;;;;;;;;;;;;;;7393706;19;2176;-46
2022/02/14 00:48:54;;;;;;;;;;;;;;;;;;7392696;19;2334;-47
2022/02/14 00:51:22;;;;;;;;;;;;;;;;;;7390094;19;2098;-43
2022/02/14 00:53:49;;;;;;;;;;;;;;;;;;7393626;19;2303;-44
2022/02/14 00:56:16;;;;;;;;;;;;;;;;;;7392288;19;1758;-42
2022/02/14 00:58:44;;;;;;;;;;;;;;;;;;7393754;19;2256;-45
2022/02/14 01:01:11;;;;;;;;;;;;;;;;;;7393457;19;2079;-42
2022/02/14 01:03:38;;;;;;;;;;;;;;;;;;7391846;19;2631;-44
2022/02/14 01:06:05;;;;;;;;;;;;;;;;;;7393088;19;2332;-44
2022/02/14 01:08:33;;;;;;;;;;;;;;;;;;7393287;19;2247;-46
2022/02/14 01:11:00;;;;;;;;;;;;;;;;;;7392979;19;2316;-46
2022/02/14 01:13:27;;;;;;;;;;;;;;;;;;7393238;19;2210;-44
2022/02/14 01:15:58;;;;;;;;;;;;;;;;;;7396414;19;2570;-42
2022/02/14 01:18:25;;;;;;;;;;;;;;;;;;7393575;19;2159;-43
2022/02/14 01:20:52;;;;;;;;;;;;;;;;;;7392408;19;2075;-43
2022/02/14 01:23:20;;;;;;;;;;;;;;;;;;7392840;19;2093;-45
2022/02/14 01:25:47;;;;;;;;;;;;;;;;;;7392645;19;2244;-44
2022/02/14 01:28:14;;;;;;;;;;;;;;;;;;7392512;19;1939;-44
2022/02/14 01:30:41;;;;;;;;;;;;;;;;;;7393605;19;2310;-46
2022/02/14 01:33:08;;;;;;;;;;;;;;;;;;7391825;19;2299;-48
2022/02/14 01:35:35;;;;;;;;;;;;;;;;;;7392339;19;2271;-48
2022/02/14 01:38:03;;;;;;;;;;;;;;;;;;7392163;19;2050;-47
2022/02/14 01:40:30;;;;;;;;;;;;;;;;;;7393355;19;2676;-45
2022/02/14 01:42:57;;;;;;;;;;;;;;;;;;7392379;19;2453;-46
2022/02/14 01:45:24;;;;;;;;;;;;;;;;;;7393624;19;2345;-45
2022/02/14 01:47:52;;;;;;;;;;;;;;;;;;7392475;19;2271;-45
2022/02/14 01:50:19;;;;;;;;;;;;;;;;;;7390590;19;2227;-47
2022/02/14 01:52:46;;;;;;;;;;;;;;;;;;7390616;19;2336;-46
2022/02/14 01:55:15;;;;;;;;;;;;;;;;;;7391722;19;2299;-45
2022/02/14 01:57:42;;;;;;;;;;;;;;;;;;7392452;19;1372;-42
2022/02/14 02:00:11;;;;;;;;;;;;;;;;;;7390717;19;1984;-42
2022/02/14 02:02:38;;;;;;;;;;;;;;;;;;7391699;19;2192;-46
2022/02/14 02:05:06;;;;;;;;;;;;;;;;;;7391375;19;1988;-45
2022/02/14 02:07:33;;;;;;;;;;;;;;;;;;7388391;19;2747;-42
2022/02/14 02:10:00;;;;;;;;;;;;;;;;;;7390932;19;1827;-46
2022/02/14 02:12:28;;;;;;;;;;;;;;;;;;7389792;19;2407;-46
2022/02/14 02:14:57;;;;;;;;;;;;;;;;;;7391304;19;2313;-45
2022/02/14 02:17:27;;;;;;;;;;;;;;;;;;7391371;19;2176;-44
2022/02/14 02:19:54;;;;;;;;;;;;;;;;;;7391164;19;1904;-44
2022/02/14 02:22:22;;;;;;;;;;;;;;;;;;7390874;19;1651;-46
2022/02/14 02:24:50;;;;;;;;;;;;;;;;;;7390918;19;2202;-44
2022/02/14 02:27:19;;;;;;;;;;;;;;;;;;7390428;19;2364;-43
2022/02/14 02:29:46;;;;;;;;;;;;;;;;;;7391516;19;2140;-43
2022/02/14 02:32:14;;;;;;;;;;;;;;;;;;7390607;19;2203;-46
2022/02/14 02:34:42;;;;;;;;;;;;;;;;;;7391530;19;2448;-45
2022/02/14 02:37:11;;;;;;;;;;;;;;;;;;7390801;19;2317;-42
2022/02/14 02:39:38;;;;;;;;;;;;;;;;;;7388756;19;2127;-44
2022/02/14 02:42:06;;;;;;;;;;;;;;;;;;7389656;19;2072;-44
2022/02/14 02:44:34;;;;;;;;;;;;;;;;;;7391970;19;1991;-44
2022/02/14 02:47:06;;;;;;;;;;;;;;;;;;7390243;19;1935;-47
2022/02/14 02:49:33;;;;;;;;;;;;;;;;;;7388830;19;2231;-45
2022/02/14 02:52:02;;;;;;;;;;;;;;;;;;7389278;19;2244;-44
2022/02/14 02:54:29;;;;;;;;;;;;;;;;;;7390190;19;2187;-45
2022/02/14 02:56:56;;;;;;;;;;;;;;;;;;7389620;19;2685;-48
2022/02/14 02:59:25;;;;;;;;;;;;;;;;;;7390059;19;2519;-44
2022/02/14 03:01:52;;;;;;;;;;;;;;;;;;7389470;19;2171;-42
2022/02/14 03:04:19;;;;;;;;;;;;;;;;;;7389489;19;2314;-45
2022/02/14 03:06:47;;;;;;;;;;;;;;;;;;7389857;19;1952;-42
2022/02/14 03:09:14;;;;;;;;;;;;;;;;;;7390782;19;1997;-48
2022/02/14 03:11:42;;;;;;;;;;;;;;;;;;7389372;19;2393;-43
2022/02/14 03:14:10;;;;;;;;;;;;;;;;;;7389873;19;1908;-46
2022/02/14 03:16:37;;;;;;;;;;;;;;;;;;7389005;19;1945;-42
2022/02/14 03:19:05;;;;;;;;;;;;;;;;;;7392871;19;1887;-44
2022/02/14 03:21:33;;;;;;;;;;;;;;;;;;7396930;19;2290;-42
2022/02/14 03:24:01;;;;;;;;;;;;;;;;;;7396948;19;2254;-47
2022/02/14 03:26:28;;;;;;;;;;;;;;;;;;7396468;19;2274;-42
2022/02/14 03:28:56;;;;;;;;;;;;;;;;;;7396818;19;2504;-44
2022/02/14 03:31:24;;;;;;;;;;;;;;;;;;7396602;19;1871;-45
2022/02/14 03:33:52;;;;;;;;;;;;;;;;;;7393685;19;1906;-49
2022/02/14 03:36:21;;;;;;;;;;;;;;;;;;7396510;19;2273;-45
2022/02/14 03:38:48;;;;;;;;;;;;;;;;;;7396292;19;2266;-47
2022/02/14 03:41:16;;;;;;;;;;;;;;;;;;7396416;19;2363;-42
2022/02/14 03:43:43;;;;;;;;;;;;;;;;;;7394702;19;2028;-45
2022/02/14 03:46:10;;;;;;;;;;;;;;;;;;7395940;19;2503;-45
2022/02/14 03:48:38;;;;;;;;;;;;;;;;;;7396036;19;2336;-45
2022/02/14 03:51:05;;;;;;;;;;;;;;;;;;7391739;19;2382;-44
2022/02/14 03:53:33;;;;;;;;;;;;;;;;;;7394226;19;2068;-45
2022/02/14 03:56:01;;;;;;;;;;;;;;;;;;7395106;19;2280;-45
2022/02/14 03:58:28;;;;;;;;;;;;;;;;;;7395406;19;2306;-47
2022/02/14 04:00:55;;;;;;;;;;;;;;;;;;7395709;19;2491;-47
2022/02/14 04:03:22;;;;;;;;;;;;;;;;;;7395181;19;2025;-48
2022/02/14 04:05:50;;;;;;;;;;;;;;;;;;7395038;19;2135;-42
2022/02/14 04:08:17;;;;;;;;;;;;;;;;;;7394700;19;2056;-44
2022/02/14 04:10:45;;;;;;;;;;;;;;;;;;7395194;19;2316;-41
2022/02/14 04:13:12;;;;;;;;;;;;;;;;;;7394747;19;2269;-43
2022/02/14 04:15:39;;;;;;;;;;;;;;;;;;7395102;19;2513;-44
2022/02/14 04:18:08;;;;;;;;;;;;;;;;;;7394241;19;2069;-43
2022/02/14 04:20:36;;;;;;;;;;;;;;;;;;7394445;19;2284;-42
2022/02/14 04:23:03;;;;;;;;;;;;;;;;;;7394596;19;2052;-46
2022/02/14 04:25:31;;;;;;;;;;;;;;;;;;7394272;19;2095;-46
2022/02/14 04:27:58;;;;;;;;;;;;;;;;;;7394449;19;1917;-41
2022/02/14 04:30:29;;;;;;;;;;;;;;;;;;7391842;19;1576;-47
2022/02/14 04:32:59;;;;;;;;;;;;;;;;;;7393211;19;2306;-43
2022/02/14 04:35:28;;;;;;;;;;;;;;;;;;7393950;19;1934;-46
2022/02/14 04:37:59;;;;;;;;;;;;;;;;;;7393838;19;2254;-46
2022/02/14 04:40:30;;;;;;;;;;;;;;;;;;7394456;19;2273;-42
2022/02/14 04:42:57;;;;;;;;;;;;;;;;;;7394064;19;2199;-44
2022/02/14 04:45:25;;;;;;;;;;;;;;;;;;7396642;19;2299;-43
2022/02/14 04:47:53;;;;;;;;;;;;;;;;;;7393504;19;2342;-45
2022/02/14 04:50:21;;;;;;;;;;;;;;;;;;7392917;19;2320;-44
2022/02/14 04:52:48;;;;;;;;;;;;;;;;;;7392781;19;2071;-45
2022/02/14 04:55:15;;;;;;;;;;;;;;;;;;7393823;19;2275;-46
2022/02/14 04:57:42;;;;;;;;;;;;;;;;;;7394523;19;2131;-44
2022/02/14 05:00:11;;;;;;;;;;;;;;;;;;7394136;19;2148;-42
2022/02/14 05:02:41;;;;;;;;;;;;;;;;;;7393558;19;2366;-44
2022/02/14 05:05:08;;;;;;;;;;;;;;;;;;7392753;19;2317;-45
2022/02/14 05:07:36;;;;;;;;;;;;;;;;;;7393325;19;2402;-45
2022/02/14 05:10:05;;;;;;;;;;;;;;;;;;7393155;19;2308;-44
2022/02/14 05:12:33;;;;;;;;;;;;;;;;;;7392195;19;2386;-43
2022/02/14 05:15:00;;;;;;;;;;;;;;;;;;7392989;19;2310;-44
2022/02/14 05:17:27;;;;;;;;;;;;;;;;;;7392989;19;2387;-48
2022/02/14 05:19:54;;;;;;;;;;;;;;;;;;7393189;19;1952;-47
2022/02/14 05:22:21;;;;;;;;;;;;;;;;;;7392669;19;2209;-45
2022/02/14 05:24:48;;;;;;;;;;;;;;;;;;7392569;19;2223;-48
2022/02/14 05:27:16;;;;;;;;;;;;;;;;;;7394702;19;2044;-45
2022/02/14 05:29:43;;;;;;;;;;;;;;;;;;7392790;19;2291;-45
2022/02/14 05:32:11;;;;;;;;;;;;;;;;;;7391822;19;2229;-43
2022/02/14 05:34:38;;;;;;;;;;;;;;;;;;7391934;19;2384;-44
2022/02/14 05:37:05;;;;;;;;;;;;;;;;;;7392219;19;2275;-51
2022/02/14 05:39:32;;;;;;;;;;;;;;;;;;7392521;19;2209;-44
2022/02/14 05:42:00;;;;;;;;;;;;;;;;;;7390761;19;2437;-48
2022/02/14 05:44:27;;;;;;;;;;;;;;;;;;7393643;19;2212;-45
2022/02/14 05:46:54;;;;;;;;;;;;;;;;;;7392256;19;1548;-53
2022/02/14 05:49:21;;;;;;;;;;;;;;;;;;7391357;19;1944;-49
2022/02/14 05:51:48;;;;;;;;;;;;;;;;;;7391762;19;2160;-47
2022/02/14 05:54:15;;;;;;;;;;;;;;;;;;7390996;19;1919;-50
2022/02/14 05:56:43;;;;;;;;;;;;;;;;;;7391924;19;2096;-47
2022/02/14 05:59:10;;;;;;;;;;;;;;;;;;7391584;19;2301;-49
2022/02/14 06:01:37;;;;;;;;;;;;;;;;;;7391453;19;1667;-45
2022/02/14 06:04:07;;;;;;;;;;;;;;;;;;7391156;19;2165;-48
2022/02/14 06:06:35;;;;;;;;;;;;;;;;;;7391530;19;2099;-46
2022/02/14 06:09:03;;;;;;;;;;;;;;;;;;7390748;19;2265;-50
2022/02/14 06:11:30;;;;;;;;;;;;;;;;;;7389826;19;2161;-44
2022/02/14 06:13:57;;;;;;;;;;;;;;;;;;7390310;19;2381;-50
2022/02/14 06:16:24;;;;;;;;;;;;;;;;;;7391084;19;2269;-47
2022/02/14 06:18:51;;;;;;;;;;;;;;;;;;7391027;19;2393;-46
2022/02/14 06:21:18;;;;;;;;;;;;;;;;;;7391291;19;2191;-48
2022/02/14 06:23:46;;;;;;;;;;;;;;;;;;7390929;19;2112;-44
2022/02/14 06:26:13;;;;;;;;;;;;;;;;;;7391148;19;2221;-47
2022/02/14 06:28:40;;;;;;;;;;;;;;;;;;7391191;19;2456;-46
2022/02/14 06:31:08;;;;;;;;;;;;;;;;;;7390299;19;2355;-45
2022/02/14 06:33:40;;;;;;;;;;;;;;;;;;7389783;19;2280;-47
2022/02/14 06:36:08;;;;;;;;;;;;;;;;;;7390345;19;2225;-49
2022/02/14 06:38:36;;;;;;;;;;;;;;;;;;7390306;19;2207;-46
2022/02/14 06:41:04;;;;;;;;;;;;;;;;;;7390338;19;2488;-46
2022/02/14 06:43:31;;;;;;;;;;;;;;;;;;7390442;19;2284;-46
2022/02/14 06:45:58;;;;;;;;;;;;;;;;;;7394939;19;2333;-46
2022/02/14 06:48:25;;;;;;;;;;;;;;;;;;7389587;19;2289;-47
2022/02/14 06:50:52;;;;;;;;;;;;;;;;;;7388030;19;2335;-46
2022/02/14 06:53:20;;;;;;;;;;;;;;;;;;7390804;19;2301;-49
2022/02/14 06:55:48;;;;;;;;;;;;;;;;;;7397269;19;2264;-43
2022/02/14 06:58:15;;;;;;;;;;;;;;;;;;7397766;19;2246;-50
2022/02/14 07:00:43;;;;;;;;;;;;;;;;;;7398238;19;2109;-44
2022/02/14 07:03:10;;;;;;;;;;;;;;;;;;7397591;19;2157;-49
2022/02/14 07:05:38;;;;;;;;;;;;;;;;;;7395775;19;3351;-44
2022/02/14 07:08:05;;;;;;;;;;;;;;;;;;7396451;19;2306;-45
2022/02/14 07:10:33;;;;;;;;;;;;;;;;;;7397497;19;2233;-44
2022/02/14 07:13:00;;;;;;;;;;;;;;;;;;7395954;19;2320;-50
2022/02/14 07:15:27;;;;;;;;;;;;;;;;;;7396679;19;2385;-47
2022/02/14 07:17:54;;;;;;;;;;;;;;;;;;7396901;19;2407;-50
2022/02/14 07:20:22;;;;;;;;;;;;;;;;;;7396856;19;2099;-49
2022/02/14 07:22:50;;;;;;;;;;;;;;;;;;7396816;19;2203;-44
2022/02/14 07:25:17;;;;;;;;;;;;;;;;;;7396969;19;1766;-47
2022/02/14 07:27:44;;;;;;;;;;;;;;;;;;7397360;19;2314;-50
2022/02/14 07:30:15;;;;;;;;;;;;;;;;;;7397015;19;2345;-47
2022/02/14 07:32:42;;;;;;;;;;;;;;;;;;7395892;19;2250;-46
2022/02/14 07:35:10;;;;;;;;;;;;;;;;;;7396787;19;2268;-44
2022/02/14 07:37:38;;;;;;;;;;;;;;;;;;7396021;19;2276;-46
2022/02/14 07:40:06;;;;;;;;;;;;;;;;;;7396387;19;1971;-46
2022/02/14 07:42:33;;;;;;;;;;;;;;;;;;7396349;19;2215;-46
2022/02/14 07:45:03;;;;;;;;;;;;;;;;;;7396537;19;2088;-46
2022/02/14 07:47:30;;;;;;;;;;;;;;;;;;7396053;19;2448;-45
2022/02/14 07:49:57;;;;;;;;;;;;;;;;;;7394914;19;2198;-44
2022/02/14 07:52:25;;;;;;;;;;;;;;;;;;7395838;19;2424;-44
2022/02/14 07:54:53;;;;;;;;;;;;;;;;;;7393568;19;2382;-42
2022/02/14 07:57:20;;;;;;;;;;;;;;;;;;7395912;19;2325;-43
2022/02/14 07:59:48;;;;;;;;;;;;;;;;;;7398391;19;2251;-42
2022/02/14 08:02:15;;;;;;;;;;;;;;;;;;7400029;19;2221;-43
2022/02/14 08:04:46;;;;;;;;;;;;;;;;;;7392597;19;2277;-42
2022/02/14 08:07:13;;;;;;;;;;;;;;;;;;7396089;19;2303;-48
2022/02/14 08:09:41;;;;;;;;;;;;;;;;;;7397702;19;2253;-42
2022/02/14 08:12:09;;;;;;;;;;;;;;;;;;7395295;19;2161;-42
2022/02/14 08:14:36;;;;;;;;;;;;;;;;;;7393076;19;2085;-42
2022/02/14 08:17:04;;;;;;;;;;;;;;;;;;7395083;19;2254;-42
2022/02/14 08:19:31;;;;;;;;;;;;;;;;;;7394810;19;2130;-45
2022/02/14 08:22:03;;;;;;;;;;;;;;;;;;7394554;19;2242;-42
2022/02/14 08:24:31;;;;;;;;;;;;;;;;;;7395296;19;2227;-42
2022/02/14 08:27:03;;;;;;;;;;;;;;;;;;7393871;19;2317;-44
2022/02/14 08:29:30;;;;;;;;;;;;;;;;;;7394851;19;2537;-42
2022/02/14 08:31:57;;;;;;;;;;;;;;;;;;7393186;19;2340;-41
2022/02/14 08:34:25;;;;;;;;;;;;;;;;;;7392889;19;2754;-43
2022/02/14 08:36:52;;;;;;;;;;;;;;;;;;7394817;19;2374;-41
2022/02/14 08:39:19;;;;;;;;;;;;;;;;;;7394452;19;2149;-43
2022/02/14 08:41:47;;;;;;;;;;;;;;;;;;7394645;19;2280;-50
2022/02/14 08:44:14;;;;;;;;;;;;;;;;;;7394928;19;2305;-45
2022/02/14 08:46:41;;;;;;;;;;;;;;;;;;7391867;19;2347;-43
2022/02/14 08:49:09;;;;;;;;;;;;;;;;;;7397974;19;2191;-48
2022/02/14 08:51:37;;;;;;;;;;;;;;;;;;7393611;19;2019;-47
2022/02/14 08:54:04;;;;;;;;;;;;;;;;;;7389902;19;2359;-46
2022/02/14 08:56:32;;;;;;;;;;;;;;;;;;7391600;19;2159;-45
